This is the latest recevied weather packets stored in our database for station/object XE2OR-10. If no packets are shown the sender has not sent any weather packets the latest 10 day(s).
| Time | Temp. | Humidity | Pressure | Rain* | Wind** | Luminosity | Snow |
|---|---|---|---|---|---|---|---|
| 1778011729 | 34.44° C | 61% | 1010.6 hPa | 0 mm | - | 674 W/m² | - |
| 1778011429 | 33.89° C | 63% | 1010.6 hPa | 0 mm | - | 683 W/m² | - |
| 1778011129 | 34.44° C | 62% | 1010.6 hPa | 0 mm | - | 733 W/m² | - |
| 1778010833 | 34.44° C | 62% | 1010.7 hPa | 0 mm | - | 729 W/m² | - |
| 1778010529 | 33.33° C | 65% | 1010.6 hPa | 0 mm | - | 712 W/m² | - |
| 1778010233 | 33.33° C | 63% | 1010.7 hPa | 0 mm | - | 788 W/m² | - |
| 1778009929 | 34.44° C | 63% | 1010.9 hPa | 0 mm | - | 711 W/m² | - |
| 1778009629 | 33.89° C | 62% | 1010.8 hPa | 0 mm | - | 513 W/m² | - |
| 1778009329 | 33.89° C | 63% | 1010.9 hPa | 0 mm | - | 753 W/m² | - |
| 1778009033 | 33.33° C | 64% | 1010.8 hPa | 0 mm | - | 766 W/m² | - |
| 1778008729 | 33.89° C | 64% | 1011 hPa | 0 mm | - | 746 W/m² | - |
| 1778008433 | 33.33° C | 65% | 1011.3 hPa | 0 mm | - | 784 W/m² | - |
| 1778008129 | 32.78° C | 67% | 1011.3 hPa | 0 mm | - | 792 W/m² | - |
| 1778007829 | 32.22° C | 68% | 1011.1 hPa | 0 mm | - | 778 W/m² | - |
| 1778007529 | 32.78° C | 67% | 1011.6 hPa | 0 mm | - | 808 W/m² | - |
| 1778007233 | 32.78° C | 67% | 1011.3 hPa | 0 mm | - | 832 W/m² | - |
| 1778006929 | 31.67° C | 68% | 1011.6 hPa | 0 mm | - | 783 W/m² | - |
| 1778006633 | 32.22° C | 68% | 1011.5 hPa | 0 mm | - | 753 W/m² | - |
| 1778006329 | 32.22° C | 68% | 1011.8 hPa | 0 mm | - | 770 W/m² | - |
| 1778006029 | 31.67° C | 68% | 1011.6 hPa | 0 mm | - | 767 W/m² | - |
| 1778005729 | 31.11° C | 69% | 1011.7 hPa | 0 mm | - | 828 W/m² | - |
| 1778005433 | 32.22° C | 68% | 1011.8 hPa | 0 mm | - | 826 W/m² | - |
| 1778005129 | 31.67° C | 71% | 1011.9 hPa | 0 mm | - | 804 W/m² | - |
| 1778004832 | 31.11° C | 70% | 1012 hPa | 0 mm | - | 783 W/m² | - |
| 1778004529 | 31.67° C | 70% | 1012.1 hPa | 0 mm | - | 607 W/m² | - |
* Rain latest hour (hover to see other rain measurements)
** Current wind speed in m/s (hover to see current wind gust speed)